KCCB/CCB METAR and TAF weather

Enter ICAO airport designator
Station Type Date Time Source
KCCB METAR 2021/05/14 06:15 UTC NOAA

KCCB 140615Z AUTO 27005KT 8SM 14/12 A3000 RMK AO2


Station Type Date Time Source
KCCB Decoded METAR 2021/05/14 06:15 UTC NOAA

Station name not available
May 14, 2021 - 02:15 AM EDT / 2021.05.14 0615 UTC
Wind: from the W (270 degrees) at 6 MPH (5 KT):0
Visibility: 8 mile(s):0
Temperature: 57 F (14 C)
Dew Point: 53 F (12 C)
Relative Humidity: 87%
Pressure (altimeter): 30 in. Hg (1015 hPa)
ob: KCCB 140615Z AUTO 27005KT 8SM 14/12 A3000 RMK AO2
cycle: 6

Station Type Date Time Source
KCCB TAF UTC NOAA

Error!

Example: see airport list